sensor_id;sensor_type;location;lat;lon;timestamp;pressure;altitude;pressure_sealevel;temperature;humidity
76448;BME280;65284;51.040;13.722;2024-03-22T00:00:05;100438.19;;;8.78;92.19
76448;BME280;65284;51.040;13.722;2024-03-22T00:02:31;100434.97;;;8.74;92.55
76448;BME280;65284;51.040;13.722;2024-03-22T00:04:57;100436.22;;;8.80;92.87
76448;BME280;65284;51.040;13.722;2024-03-22T00:07:22;100440.44;;;8.73;92.91
76448;BME280;65284;51.040;13.722;2024-03-22T00:09:48;100442.09;;;8.74;93.10
76448;BME280;65284;51.040;13.722;2024-03-22T00:12:13;100431.50;;;8.74;93.02
76448;BME280;65284;51.040;13.722;2024-03-22T00:14:39;100429.84;;;8.73;93.26
76448;BME280;65284;51.040;13.722;2024-03-22T00:17:04;100433.44;;;8.72;93.46
76448;BME280;65284;51.040;13.722;2024-03-22T00:19:32;100431.78;;;8.71;93.53
76448;BME280;65284;51.040;13.722;2024-03-22T00:21:58;100442.38;;;8.71;93.68
76448;BME280;65284;51.040;13.722;2024-03-22T00:24:23;100430.63;;;8.63;94.00
76448;BME280;65284;51.040;13.722;2024-03-22T00:26:49;100442.66;;;8.68;93.75
76448;BME280;65284;51.040;13.722;2024-03-22T00:29:14;100430.63;;;8.63;93.98
76448;BME280;65284;51.040;13.722;2024-03-22T00:31:40;100418.53;;;8.61;93.83
76448;BME280;65284;51.040;13.722;2024-03-22T00:34:05;100427.31;;;8.61;94.01
76448;BME280;65284;51.040;13.722;2024-03-22T00:36:31;100417.66;;;8.60;93.73
76448;BME280;65284;51.040;13.722;2024-03-22T00:38:56;100420.31;;;8.60;93.61
76448;BME280;65284;51.040;13.722;2024-03-22T00:41:22;100412.81;;;8.65;93.73
76448;BME280;65284;51.040;13.722;2024-03-22T00:43:47;100411.16;;;8.64;93.59
76448;BME280;65284;51.040;13.722;2024-03-22T00:46:13;100404.59;;;8.69;93.49
76448;BME280;65284;51.040;13.722;2024-03-22T00:48:38;100408.22;;;8.68;93.34
76448;BME280;65284;51.040;13.722;2024-03-22T00:51:04;100402.78;;;8.59;93.86
76448;BME280;65284;51.040;13.722;2024-03-22T00:53:29;100402.50;;;8.62;93.60
76448;BME280;65284;51.040;13.722;2024-03-22T00:55:55;100410.88;;;8.68;93.41
76448;BME280;65284;51.040;13.722;2024-03-22T00:58:21;100395.53;;;8.61;93.27
76448;BME280;65284;51.040;13.722;2024-03-22T01:00:47;100399.13;;;8.60;93.10
76448;BME280;65284;51.040;13.722;2024-03-22T01:03:12;100401.94;;;8.69;92.90
76448;BME280;65284;51.040;13.722;2024-03-22T01:05:38;100403.31;;;8.63;93.05
76448;BME280;65284;51.040;13.722;2024-03-22T01:08:05;100395.25;;;8.64;92.57
76448;BME280;65284;51.040;13.722;2024-03-22T01:10:31;100400.28;;;8.58;93.15
76448;BME280;65284;51.040;13.722;2024-03-22T01:12:56;100391.34;;;8.59;93.28
76448;BME280;65284;51.040;13.722;2024-03-22T01:15:21;100388.97;;;8.56;93.95
76448;BME280;65284;51.040;13.722;2024-03-22T01:17:47;100379.94;;;8.58;93.04
76448;BME280;65284;51.040;13.722;2024-03-22T01:20:12;100385.22;;;8.58;93.70
76448;BME280;65284;51.040;13.722;2024-03-22T01:22:38;100389.25;;;8.53;93.62
76448;BME280;65284;51.040;13.722;2024-03-22T01:25:04;100378.78;;;8.51;92.90
76448;BME280;65284;51.040;13.722;2024-03-22T01:27:30;100374.09;;;8.55;93.26
76448;BME280;65284;51.040;13.722;2024-03-22T01:29:55;100359.88;;;8.46;93.22
76448;BME280;65284;51.040;13.722;2024-03-22T01:32:21;100365.44;;;8.43;93.52
76448;BME280;65284;51.040;13.722;2024-03-22T01:34:47;100363.47;;;8.45;93.32
76448;BME280;65284;51.040;13.722;2024-03-22T01:37:12;100354.56;;;8.46;93.02
76448;BME280;65284;51.040;13.722;2024-03-22T01:39:38;100362.09;;;8.41;93.14
76448;BME280;65284;51.040;13.722;2024-03-22T01:42:03;100358.44;;;8.42;92.90
76448;BME280;65284;51.040;13.722;2024-03-22T01:44:31;100356.50;;;8.44;92.74
76448;BME280;65284;51.040;13.722;2024-03-22T01:46:57;100349.56;;;8.43;92.69
76448;BME280;65284;51.040;13.722;2024-03-22T01:49:25;100343.81;;;8.48;92.02
76448;BME280;65284;51.040;13.722;2024-03-22T01:51:52;100347.03;;;8.41;92.33
76448;BME280;65284;51.040;13.722;2024-03-22T01:54:19;100344.75;;;8.37;92.79
76448;BME280;65284;51.040;13.722;2024-03-22T01:56:45;100342.53;;;8.32;92.93
76448;BME280;65284;51.040;13.722;2024-03-22T01:59:12;100337.25;;;8.32;92.70
76448;BME280;65284;51.040;13.722;2024-03-22T02:01:37;100336.25;;;8.33;92.47
76448;BME280;65284;51.040;13.722;2024-03-22T02:04:03;100332.22;;;8.29;92.53
76448;BME280;65284;51.040;13.722;2024-03-22T02:06:28;100332.22;;;8.29;92.29
76448;BME280;65284;51.040;13.722;2024-03-22T02:08:55;100330.28;;;8.31;92.24
76448;BME280;65284;51.040;13.722;2024-03-22T02:11:21;100326.66;;;8.32;92.28
76448;BME280;65284;51.040;13.722;2024-03-22T02:13:47;100326.94;;;8.29;91.96
76448;BME280;65284;51.040;13.722;2024-03-22T02:16:13;100322.47;;;8.30;91.81
76448;BME280;65284;51.040;13.722;2024-03-22T02:18:38;100310.63;;;8.34;91.51
76448;BME280;65284;51.040;13.722;2024-03-22T02:21:04;100323.03;;;8.33;91.61
76448;BME280;65284;51.040;13.722;2024-03-22T02:23:33;100306.59;;;8.30;91.39
76448;BME280;65284;51.040;13.722;2024-03-22T02:25:59;100315.25;;;8.32;91.41
76448;BME280;65284;51.040;13.722;2024-03-22T02:28:25;100299.78;;;8.27;91.15
76448;BME280;65284;51.040;13.722;2024-03-22T02:30:51;100297.97;;;8.28;91.50
76448;BME280;65284;51.040;13.722;2024-03-22T02:33:16;100299.06;;;8.25;91.80
76448;BME280;65284;51.040;13.722;2024-03-22T02:35:42;100292.13;;;8.24;91.32
76448;BME280;65284;51.040;13.722;2024-03-22T02:38:08;100284.34;;;8.23;91.46
76448;BME280;65284;51.040;13.722;2024-03-22T02:40:33;100291.56;;;8.20;91.74
76448;BME280;65284;51.040;13.722;2024-03-22T02:42:58;100296.03;;;8.20;92.04
76448;BME280;65284;51.040;13.722;2024-03-22T02:45:24;100283.75;;;8.19;92.13
76448;BME280;65284;51.040;13.722;2024-03-22T02:47:50;100288.22;;;8.18;92.43
76448;BME280;65284;51.040;13.722;2024-03-22T02:50:15;100288.22;;;8.18;92.19
76448;BME280;65284;51.040;13.722;2024-03-22T02:52:41;100280.44;;;8.17;91.99
76448;BME280;65284;51.040;13.722;2024-03-22T02:55:07;100283.19;;;8.15;92.21
76448;BME280;65284;51.040;13.722;2024-03-22T02:57:33;100281.53;;;8.14;92.47
76448;BME280;65284;51.040;13.722;2024-03-22T03:00:00;100268.31;;;8.14;92.51
76448;BME280;65284;51.040;13.722;2024-03-22T03:02:25;100269.00;;;8.16;92.27
76448;BME280;65284;51.040;13.722;2024-03-22T03:04:51;100278.19;;;8.12;92.41
76448;BME280;65284;51.040;13.722;2024-03-22T03:07:16;100262.31;;;8.12;92.90
76448;BME280;65284;51.040;13.722;2024-03-22T03:09:42;100270.13;;;8.14;92.77
76448;BME280;65284;51.040;13.722;2024-03-22T03:12:07;100270.97;;;8.14;92.72
76448;BME280;65284;51.040;13.722;2024-03-22T03:14:33;100267.59;;;8.12;92.76
76448;BME280;65284;51.040;13.722;2024-03-22T03:16:58;100260.38;;;8.14;93.20
76448;BME280;65284;51.040;13.722;2024-03-22T03:19:24;100271.22;;;8.11;93.16
76448;BME280;65284;51.040;13.722;2024-03-22T03:21:49;100256.59;;;8.07;93.18
76448;BME280;65284;51.040;13.722;2024-03-22T03:24:14;100255.63;;;8.08;93.77
76448;BME280;65284;51.040;13.722;2024-03-22T03:26:40;100254.53;;;8.20;93.40
76448;BME280;65284;51.040;13.722;2024-03-22T03:29:06;100247.16;;;8.14;93.13
76448;BME280;65284;51.040;13.722;2024-03-22T03:31:31;100251.72;;;8.12;93.48
76448;BME280;65284;51.040;13.722;2024-03-22T03:33:57;100248.38;;;8.10;93.80
76448;BME280;65284;51.040;13.722;2024-03-22T03:36:23;100249.38;;;8.09;93.86
76448;BME280;65284;51.040;13.722;2024-03-22T03:38:48;100246.72;;;8.09;94.12
76448;BME280;65284;51.040;13.722;2024-03-22T03:41:13;100243.94;;;8.11;93.67
76448;BME280;65284;51.040;13.722;2024-03-22T03:43:39;100244.22;;;8.08;93.91
76448;BME280;65284;51.040;13.722;2024-03-22T03:46:04;100243.09;;;8.10;94.17
76448;BME280;65284;51.040;13.722;2024-03-22T03:48:30;100237.81;;;8.10;94.24
76448;BME280;65284;51.040;13.722;2024-03-22T03:50:55;100235.31;;;8.09;93.98
76448;BME280;65284;51.040;13.722;2024-03-22T03:53:24;100230.84;;;8.09;94.60
76448;BME280;65284;51.040;13.722;2024-03-22T03:55:50;100235.44;;;8.07;94.67
76448;BME280;65284;51.040;13.722;2024-03-22T03:58:15;100228.75;;;8.03;94.32
76448;BME280;65284;51.040;13.722;2024-03-22T04:00:43;100235.03;;;8.02;94.68
76448;BME280;65284;51.040;13.722;2024-03-22T04:03:08;100228.63;;;8.05;94.53
76448;BME280;65284;51.040;13.722;2024-03-22T04:05:34;100231.41;;;8.03;95.16
76448;BME280;65284;51.040;13.722;2024-03-22T04:07:59;100232.25;;;7.94;95.06
76448;BME280;65284;51.040;13.722;2024-03-22T04:10:25;100225.72;;;8.08;94.97
76448;BME280;65284;51.040;13.722;2024-03-22T04:12:50;100224.19;;;8.05;94.54
76448;BME280;65284;51.040;13.722;2024-03-22T04:15:16;100216.25;;;8.05;94.43
76448;BME280;65284;51.040;13.722;2024-03-22T04:17:41;100217.47;;;8.01;94.72
76448;BME280;65284;51.040;13.722;2024-03-22T04:20:07;100210.81;;;7.97;95.09
76448;BME280;65284;51.040;13.722;2024-03-22T04:22:34;100216.09;;;7.97;95.28
76448;BME280;65284;51.040;13.722;2024-03-22T04:24:59;100212.47;;;7.98;94.94
76448;BME280;65284;51.040;13.722;2024-03-22T04:27:25;100208.16;;;7.97;95.19
76448;BME280;65284;51.040;13.722;2024-03-22T04:29:50;100207.34;;;7.96;95.36
76448;BME280;65284;51.040;13.722;2024-03-22T04:32:16;100203.16;;;7.94;94.96
76448;BME280;65284;51.040;13.722;2024-03-22T04:34:42;100198.84;;;7.93;94.69
76448;BME280;65284;51.040;13.722;2024-03-22T04:37:08;100204.81;;;7.95;95.34
76448;BME280;65284;51.040;13.722;2024-03-22T04:39:35;100199.13;;;7.90;94.76
76448;BME280;65284;51.040;13.722;2024-03-22T04:42:01;100193.84;;;7.90;94.36
76448;BME280;65284;51.040;13.722;2024-03-22T04:44:27;100191.88;;;7.92;95.37
76448;BME280;65284;51.040;13.722;2024-03-22T04:46:52;100186.44;;;7.93;95.55
76448;BME280;65284;51.040;13.722;2024-03-22T04:49:18;100181.28;;;7.92;95.17
76448;BME280;65284;51.040;13.722;2024-03-22T04:51:43;100184.22;;;7.89;95.50
76448;BME280;65284;51.040;13.722;2024-03-22T04:54:08;100185.47;;;7.85;95.84
76448;BME280;65284;51.040;13.722;2024-03-22T04:56:34;100181.28;;;7.82;96.01
76448;BME280;65284;51.040;13.722;2024-03-22T04:58:59;100177.13;;;7.80;96.15
76448;BME280;65284;51.040;13.722;2024-03-22T05:01:25;100182.13;;;7.83;96.43
76448;BME280;65284;51.040;13.722;2024-03-22T05:03:50;100179.75;;;7.89;95.87
76448;BME280;65284;51.040;13.722;2024-03-22T05:06:17;100181.16;;;7.84;96.04
76448;BME280;65284;51.040;13.722;2024-03-22T05:08:43;100182.13;;;7.83;95.11
76448;BME280;65284;51.040;13.722;2024-03-22T05:11:08;100176.84;;;7.83;95.12
76448;BME280;65284;51.040;13.722;2024-03-22T05:13:34;100177.53;;;7.85;94.68
76448;BME280;65284;51.040;13.722;2024-03-22T05:15:59;100180.91;;;7.87;94.22
76448;BME280;65284;51.040;13.722;2024-03-22T05:18:24;100173.78;;;7.87;94.52
76448;BME280;65284;51.040;13.722;2024-03-22T05:20:50;100175.44;;;7.88;94.36
76448;BME280;65284;51.040;13.722;2024-03-22T05:23:15;100166.00;;;7.86;93.92
76448;BME280;65284;51.040;13.722;2024-03-22T05:25:42;100164.56;;;8.01;93.46
76448;BME280;65284;51.040;13.722;2024-03-22T05:28:08;100157.34;;;8.03;92.69
76448;BME280;65284;51.040;13.722;2024-03-22T05:30:33;100170.16;;;7.98;92.94
76448;BME280;65284;51.040;13.722;2024-03-22T05:32:59;100158.19;;;7.94;92.64
76448;BME280;65284;51.040;13.722;2024-03-22T05:35:24;100150.97;;;7.96;92.27
76448;BME280;65284;51.040;13.722;2024-03-22T05:37:50;100141.19;;;8.06;92.19
76448;BME280;65284;51.040;13.722;2024-03-22T05:40:16;100137.56;;;8.07;91.90
76448;BME280;65284;51.040;13.722;2024-03-22T05:42:42;100142.19;;;8.05;91.84
76448;BME280;65284;51.040;13.722;2024-03-22T05:45:08;100141.75;;;8.10;91.28
76448;BME280;65284;51.040;13.722;2024-03-22T05:47:34;100138.69;;;8.14;90.94
76448;BME280;65284;51.040;13.722;2024-03-22T05:50:00;100128.94;;;8.15;90.55
76448;BME280;65284;51.040;13.722;2024-03-22T05:52:26;100136.75;;;8.16;90.04
76448;BME280;65284;51.040;13.722;2024-03-22T05:54:52;100141.16;;;8.16;90.37
76448;BME280;65284;51.040;13.722;2024-03-22T05:57:17;100129.19;;;8.21;89.89
76448;BME280;65284;51.040;13.722;2024-03-22T05:59:43;100129.84;;;8.33;88.57
76448;BME280;65284;51.040;13.722;2024-03-22T06:02:08;100127.75;;;8.37;87.52
76448;BME280;65284;51.040;13.722;2024-03-22T06:04:33;100126.66;;;8.39;87.16
76448;BME280;65284;51.040;13.722;2024-03-22T06:07:00;100136.41;;;8.39;86.77
76448;BME280;65284;51.040;13.722;2024-03-22T06:09:28;100125.56;;;8.42;86.32
76448;BME280;65284;51.040;13.722;2024-03-22T06:12:05;100121.09;;;8.42;86.50
76448;BME280;65284;51.040;13.722;2024-03-22T06:14:32;100121.94;;;8.43;86.15
76448;BME280;65284;51.040;13.722;2024-03-22T06:16:57;100114.66;;;8.45;86.22
76448;BME280;65284;51.040;13.722;2024-03-22T06:19:23;100116.38;;;8.46;85.92
76448;BME280;65284;51.040;13.722;2024-03-22T06:21:49;100114.25;;;8.50;85.49
76448;BME280;65284;51.040;13.722;2024-03-22T06:24:14;100118.56;;;8.51;85.07
76448;BME280;65284;51.040;13.722;2024-03-22T06:26:40;100112.69;;;8.57;84.47
76448;BME280;65284;51.040;13.722;2024-03-22T06:29:05;100112.25;;;8.61;84.18
76448;BME280;65284;51.040;13.722;2024-03-22T06:31:31;100115.38;;;8.75;83.19
76448;BME280;65284;51.040;13.722;2024-03-22T06:33:56;100103.16;;;8.74;83.41
76448;BME280;65284;51.040;13.722;2024-03-22T06:36:28;100106.19;;;8.79;83.93
76448;BME280;65284;51.040;13.722;2024-03-22T06:38:54;100109.50;;;8.81;83.06
76448;BME280;65284;51.040;13.722;2024-03-22T06:41:19;100107.50;;;8.93;82.59
76448;BME280;65284;51.040;13.722;2024-03-22T06:43:45;100098.28;;;8.97;81.42
76448;BME280;65284;51.040;13.722;2024-03-22T06:46:11;100094.22;;;9.02;81.57
76448;BME280;65284;51.040;13.722;2024-03-22T06:48:36;100085.72;;;9.17;80.64
76448;BME280;65284;51.040;13.722;2024-03-22T06:51:02;100090.06;;;9.18;80.46
76448;BME280;65284;51.040;13.722;2024-03-22T06:53:27;100082.78;;;9.20;80.14
76448;BME280;65284;51.040;13.722;2024-03-22T06:55:53;100070.69;;;9.35;79.22
76448;BME280;65284;51.040;13.722;2024-03-22T06:58:18;100075.44;;;9.31;79.16
76448;BME280;65284;51.040;13.722;2024-03-22T07:00:44;100065.00;;;9.30;79.18
76448;BME280;65284;51.040;13.722;2024-03-22T07:03:09;100069.31;;;9.31;78.90
76448;BME280;65284;51.040;13.722;2024-03-22T07:05:35;100071.81;;;9.32;79.33
76448;BME280;65284;51.040;13.722;2024-03-22T07:08:00;100072.75;;;9.41;78.51
76448;BME280;65284;51.040;13.722;2024-03-22T07:10:25;100070.09;;;9.41;78.49
76448;BME280;65284;51.040;13.722;2024-03-22T07:12:54;100067.13;;;9.44;78.23
76448;BME280;65284;51.040;13.722;2024-03-22T07:15:21;100068.88;;;9.53;77.53
76448;BME280;65284;51.040;13.722;2024-03-22T07:17:47;100066.75;;;9.57;77.51
76448;BME280;65284;51.040;13.722;2024-03-22T07:20:12;100066.59;;;9.59;77.33
76448;BME280;65284;51.040;13.722;2024-03-22T07:22:38;100059.53;;;9.67;77.02
76448;BME280;65284;51.040;13.722;2024-03-22T07:25:03;100062.34;;;9.66;77.49
76448;BME280;65284;51.040;13.722;2024-03-22T07:27:29;100059.53;;;9.67;77.64
76448;BME280;65284;51.040;13.722;2024-03-22T07:29:57;100057.75;;;9.76;77.15
76448;BME280;65284;51.040;13.722;2024-03-22T07:32:22;100060.69;;;9.91;76.87
76448;BME280;65284;51.040;13.722;2024-03-22T07:34:48;100050.69;;;9.85;76.73
76448;BME280;65284;51.040;13.722;2024-03-22T07:37:13;100052.59;;;9.92;76.78
76448;BME280;65284;51.040;13.722;2024-03-22T07:39:39;100054.47;;;10.00;75.57
76448;BME280;65284;51.040;13.722;2024-03-22T07:42:04;100054.97;;;10.03;75.91
76448;BME280;65284;51.040;13.722;2024-03-22T07:44:30;100051.66;;;10.01;76.36
76448;BME280;65284;51.040;13.722;2024-03-22T07:46:55;100050.06;;;10.17;75.03
76448;BME280;65284;51.040;13.722;2024-03-22T07:49:21;100062.69;;;10.15;75.25
76448;BME280;65284;51.040;13.722;2024-03-22T07:51:46;100045.81;;;10.24;75.13
76448;BME280;65284;51.040;13.722;2024-03-22T07:54:12;100040.50;;;10.24;74.98
76448;BME280;65284;51.040;13.722;2024-03-22T07:56:37;100040.41;;;10.34;75.19
76448;BME280;65284;51.040;13.722;2024-03-22T07:59:03;100034.28;;;10.33;74.59
76448;BME280;65284;51.040;13.722;2024-03-22T08:01:28;100041.44;;;10.41;74.73
76448;BME280;65284;51.040;13.722;2024-03-22T08:03:54;100043.31;;;10.48;74.34
76448;BME280;65284;51.040;13.722;2024-03-22T08:06:19;100030.72;;;10.59;73.82
76448;BME280;65284;51.040;13.722;2024-03-22T08:08:45;100029.25;;;10.64;73.72
76448;BME280;65284;51.040;13.722;2024-03-22T08:11:10;100033.44;;;10.75;74.05
76448;BME280;65284;51.040;13.722;2024-03-22T08:13:36;100035.31;;;10.83;73.60
76448;BME280;65284;51.040;13.722;2024-03-22T08:16:01;100021.22;;;10.99;73.23
76448;BME280;65284;51.040;13.722;2024-03-22T08:18:27;100019.22;;;11.09;72.79
76448;BME280;65284;51.040;13.722;2024-03-22T08:20:52;100021.75;;;11.27;72.69
76448;BME280;65284;51.040;13.722;2024-03-22T08:23:18;100007.94;;;11.15;73.04
76448;BME280;65284;51.040;13.722;2024-03-22T08:25:46;100015.09;;;11.14;72.91
76448;BME280;65284;51.040;13.722;2024-03-22T08:28:12;100015.25;;;11.13;73.13
76448;BME280;65284;51.040;13.722;2024-03-22T08:30:39;100015.25;;;11.13;72.89
76448;BME280;65284;51.040;13.722;2024-03-22T08:33:04;100008.28;;;11.20;72.69
76448;BME280;65284;51.040;13.722;2024-03-22T08:35:30;100015.09;;;11.23;72.15
76448;BME280;65284;51.040;13.722;2024-03-22T08:37:56;99998.00;;;11.25;71.69
76448;BME280;65284;51.040;13.722;2024-03-22T08:40:21;99997.66;;;11.28;71.72
76448;BME280;65284;51.040;13.722;2024-03-22T08:42:48;99995.00;;;11.36;70.56
76448;BME280;65284;51.040;13.722;2024-03-22T08:45:14;99990.19;;;11.40;70.32
76448;BME280;65284;51.040;13.722;2024-03-22T08:47:39;99990.69;;;11.52;69.34
76448;BME280;65284;51.040;13.722;2024-03-22T08:50:06;99991.34;;;11.54;69.77
76448;BME280;65284;51.040;13.722;2024-03-22T08:52:31;99989.34;;;11.64;68.43
76448;BME280;65284;51.040;13.722;2024-03-22T08:54:59;99985.34;;;11.60;68.44
76448;BME280;65284;51.040;13.722;2024-03-22T08:57:25;99969.34;;;11.68;67.88
76448;BME280;65284;51.040;13.722;2024-03-22T08:59:50;99975.34;;;11.70;67.35
76448;BME280;65284;51.040;13.722;2024-03-22T09:02:16;99973.34;;;11.80;66.87
76448;BME280;65284;51.040;13.722;2024-03-22T09:04:41;99967.69;;;11.92;66.24
76448;BME280;65284;51.040;13.722;2024-03-22T09:07:07;99960.72;;;11.91;65.68
76448;BME280;65284;51.040;13.722;2024-03-22T09:09:33;99963.16;;;12.09;64.75
76448;BME280;65284;51.040;13.722;2024-03-22T09:11:58;99953.88;;;11.96;65.36
76448;BME280;65284;51.040;13.722;2024-03-22T09:14:24;99965.81;;;12.00;64.78
76448;BME280;65284;51.040;13.722;2024-03-22T09:16:49;99959.97;;;12.13;64.43
76448;BME280;65284;51.040;13.722;2024-03-22T09:19:15;99963.44;;;12.22;64.74
76448;BME280;65284;51.040;13.722;2024-03-22T09:21:42;99962.88;;;12.35;63.01
76448;BME280;65284;51.040;13.722;2024-03-22T09:24:07;99963.91;;;12.25;62.82
76448;BME280;65284;51.040;13.722;2024-03-22T09:26:33;99955.03;;;12.33;61.78
76448;BME280;65284;51.040;13.722;2024-03-22T09:28:58;99960.56;;;12.32;61.62
76448;BME280;65284;51.040;13.722;2024-03-22T09:31:24;99960.19;;;12.43;61.93
76448;BME280;65284;51.040;13.722;2024-03-22T09:33:49;99957.72;;;12.33;61.21
76448;BME280;65284;51.040;13.722;2024-03-22T09:36:15;99952.53;;;12.40;61.11
76448;BME280;65284;51.040;13.722;2024-03-22T09:38:41;99947.16;;;12.48;60.30
76448;BME280;65284;51.040;13.722;2024-03-22T09:41:06;99943.97;;;12.52;60.37
76448;BME280;65284;51.040;13.722;2024-03-22T09:43:33;99944.75;;;12.61;60.69
76448;BME280;65284;51.040;13.722;2024-03-22T09:45:58;99939.13;;;12.56;61.16
76448;BME280;65284;51.040;13.722;2024-03-22T09:48:24;99933.28;;;12.61;61.43
76448;BME280;65284;51.040;13.722;2024-03-22T09:50:51;99926.78;;;12.63;61.36
76448;BME280;65284;51.040;13.722;2024-03-22T09:53:19;99926.13;;;12.61;62.03
76448;BME280;65284;51.040;13.722;2024-03-22T09:55:47;99935.03;;;12.68;62.34
76448;BME280;65284;51.040;13.722;2024-03-22T09:58:12;99939.03;;;12.72;62.96
76448;BME280;65284;51.040;13.722;2024-03-22T10:00:38;99927.97;;;12.84;62.51
76448;BME280;65284;51.040;13.722;2024-03-22T10:03:04;99918.75;;;12.86;62.71
76448;BME280;65284;51.040;13.722;2024-03-22T10:05:31;99933.94;;;13.09;62.58
76448;BME280;65284;51.040;13.722;2024-03-22T10:07:56;99931.78;;;13.04;63.19
76448;BME280;65284;51.040;13.722;2024-03-22T10:10:22;99919.34;;;13.19;62.78
76448;BME280;65284;51.040;13.722;2024-03-22T10:12:48;99911.78;;;13.08;63.03
76448;BME280;65284;51.040;13.722;2024-03-22T10:15:13;99911.28;;;13.28;62.59
76448;BME280;65284;51.040;13.722;2024-03-22T10:17:39;99912.59;;;13.32;62.50
76448;BME280;65284;51.040;13.722;2024-03-22T10:20:05;99908.56;;;13.13;63.46
76448;BME280;65284;51.040;13.722;2024-03-22T10:22:41;99911.94;;;13.30;63.32
76448;BME280;65284;51.040;13.722;2024-03-22T10:25:06;99904.63;;;13.24;63.76
76448;BME280;65284;51.040;13.722;2024-03-22T10:27:32;99892.50;;;13.21;63.74
76448;BME280;65284;51.040;13.722;2024-03-22T10:29:58;99902.78;;;13.24;63.92
76448;BME280;65284;51.040;13.722;2024-03-22T10:32:24;99889.81;;;13.44;63.43
76448;BME280;65284;51.040;13.722;2024-03-22T10:34:50;99894.78;;;13.47;63.50
76448;BME280;65284;51.040;13.722;2024-03-22T10:37:16;99892.66;;;13.57;62.78
76448;BME280;65284;51.040;13.722;2024-03-22T10:39:42;99897.38;;;13.55;62.42
76448;BME280;65284;51.040;13.722;2024-03-22T10:42:12;99903.81;;;13.61;62.14
76448;BME280;65284;51.040;13.722;2024-03-22T10:44:38;99874.56;;;13.68;62.07
76448;BME280;65284;51.040;13.722;2024-03-22T10:47:05;99874.91;;;13.64;62.70
76448;BME280;65284;51.040;13.722;2024-03-22T10:49:35;99880.63;;;13.76;62.47
76448;BME280;65284;51.040;13.722;2024-03-22T10:52:02;99872.78;;;13.75;61.97
76448;BME280;65284;51.040;13.722;2024-03-22T10:54:33;99873.72;;;13.82;62.24
76448;BME280;65284;51.040;13.722;2024-03-22T10:57:00;99870.13;;;13.75;62.95
76448;BME280;65284;51.040;13.722;2024-03-22T10:59:26;99861.00;;;13.84;62.29
76448;BME280;65284;51.040;13.722;2024-03-22T11:01:52;99850.13;;;14.00;61.93
76448;BME280;65284;51.040;13.722;2024-03-22T11:04:19;99846.25;;;14.03;61.43
76448;BME280;65284;51.040;13.722;2024-03-22T11:06:49;99840.22;;;14.16;61.33
76448;BME280;65284;51.040;13.722;2024-03-22T11:09:21;99851.84;;;14.23;60.74
76448;BME280;65284;51.040;13.722;2024-03-22T11:11:47;99848.81;;;14.11;61.01
76448;BME280;65284;51.040;13.722;2024-03-22T11:14:12;99835.63;;;14.09;61.23
76448;BME280;65284;51.040;13.722;2024-03-22T11:16:37;99828.66;;;14.08;61.59
76448;BME280;65284;51.040;13.722;2024-03-22T11:19:04;99821.63;;;14.07;62.39
76448;BME280;65284;51.040;13.722;2024-03-22T11:21:32;99816.06;;;14.24;61.43
76448;BME280;65284;51.040;13.722;2024-03-22T11:24:00;99811.72;;;14.38;60.81
76448;BME280;65284;51.040;13.722;2024-03-22T11:26:26;99816.53;;;14.27;61.09
76448;BME280;65284;51.040;13.722;2024-03-22T11:28:51;99818.09;;;14.22;60.86
76448;BME280;65284;51.040;13.722;2024-03-22T11:31:17;99805.50;;;14.16;61.31
76448;BME280;65284;51.040;13.722;2024-03-22T11:33:44;99807.16;;;14.17;60.74
76448;BME280;65284;51.040;13.722;2024-03-22T11:36:09;99799.28;;;14.30;60.43
76448;BME280;65284;51.040;13.722;2024-03-22T11:38:35;99789.88;;;14.34;59.89
76448;BME280;65284;51.040;13.722;2024-03-22T11:41:01;99793.56;;;14.33;60.01
76448;BME280;65284;51.040;13.722;2024-03-22T11:43:28;99777.03;;;14.44;59.16
76448;BME280;65284;51.040;13.722;2024-03-22T11:45:55;99781.09;;;14.40;60.05
76448;BME280;65284;51.040;13.722;2024-03-22T11:48:21;99789.19;;;14.47;59.77
76448;BME280;65284;51.040;13.722;2024-03-22T11:50:46;99762.81;;;14.59;59.40
76448;BME280;65284;51.040;13.722;2024-03-22T11:53:12;99782.75;;;14.63;58.94
76448;BME280;65284;51.040;13.722;2024-03-22T11:55:37;99773.78;;;14.49;58.96
76448;BME280;65284;51.040;13.722;2024-03-22T11:58:03;99775.44;;;14.50;58.87
76448;BME280;65284;51.040;13.722;2024-03-22T12:00:29;99759.66;;;14.55;58.63
76448;BME280;65284;51.040;13.722;2024-03-22T12:02:54;99753.75;;;14.60;58.95
76448;BME280;65284;51.040;13.722;2024-03-22T12:05:20;99753.31;;;14.56;59.27
76448;BME280;65284;51.040;13.722;2024-03-22T12:07:46;99745.09;;;14.57;59.17
76448;BME280;65284;51.040;13.722;2024-03-22T12:10:12;99762.16;;;14.56;59.33
76448;BME280;65284;51.040;13.722;2024-03-22T12:12:37;99751.94;;;14.67;58.90
76448;BME280;65284;51.040;13.722;2024-03-22T12:15:04;99738.94;;;14.57;59.28
76448;BME280;65284;51.040;13.722;2024-03-22T12:17:30;99743.66;;;14.83;58.64
76448;BME280;65284;51.040;13.722;2024-03-22T12:19:55;99727.13;;;14.73;58.89
76448;BME280;65284;51.040;13.722;2024-03-22T12:22:22;99739.81;;;14.64;58.89
76448;BME280;65284;51.040;13.722;2024-03-22T12:24:48;99739.34;;;14.61;59.12
76448;BME280;65284;51.040;13.722;2024-03-22T12:27:13;99734.19;;;14.52;58.83
76448;BME280;65284;51.040;13.722;2024-03-22T12:29:39;99738.75;;;14.59;59.02
76448;BME280;65284;51.040;13.722;2024-03-22T12:32:05;99733.50;;;14.72;58.59
76448;BME280;65284;51.040;13.722;2024-03-22T12:34:30;99731.47;;;14.74;58.08
76448;BME280;65284;51.040;13.722;2024-03-22T12:36:57;99729.75;;;14.66;58.07
76448;BME280;65284;51.040;13.722;2024-03-22T12:39:24;99721.53;;;14.68;58.71
76448;BME280;65284;51.040;13.722;2024-03-22T12:41:49;99717.19;;;14.67;59.12